Time;durP1;ratioP1;P1;durP2;ratioP2;P2;SDS_P1;SDS_P2;PMS_P1;PMS_P2;Temp;Humidity;BMP_temperature;BMP_pressure;BME280_temperature;BME280_humidity;BME280_pressure;Samples;Min_cycle;Max_cycle;Signal;HPM_P1;HPM_P2
2023/03/28 00:01:02;;;;;;;3.30;1.70;;;;;;;;;;5046468;28;20048;-47
2023/03/28 00:03:34;;;;;;;2.70;1.20;;;;;;;;;;5045878;28;20032;-41
2023/03/28 00:06:00;;;;;;;2.30;1.30;;;;;;;;;;5040434;28;20219;-44
2023/03/28 00:08:29;;;;;;;4.80;1.73;;;;;;;;;;5043740;28;20087;-42
2023/03/28 00:11:07;;;;;;;3.30;1.20;;;;;;;;;;5038116;28;20081;-48
2023/03/28 00:13:32;;;;;;;6.50;1.17;;;;;;;;;;5044189;28;20072;-47
2023/03/28 00:16:02;;;;;;;9.60;1.40;;;;;;;;;;5045521;28;20375;-47
2023/03/28 00:18:28;;;;;;;2.67;1.27;;;;;;;;;;5047589;28;20107;-46
2023/03/28 00:20:54;;;;;;;3.70;1.48;;;;;;;;;;5047105;28;20124;-44
2023/03/28 00:23:19;;;;;;;2.65;1.30;;;;;;;;;;5046830;28;20029;-42
2023/03/28 00:25:44;;;;;;;3.60;1.25;;;;;;;;;;5050466;28;20733;-42
2023/03/28 00:28:10;;;;;;;3.72;1.58;;;;;;;;;;5046317;28;20025;-41
2023/03/28 00:30:36;;;;;;;1.90;1.48;;;;;;;;;;5047968;28;20036;-42
2023/03/28 00:33:03;;;;;;;2.95;1.70;;;;;;;;;;5045799;28;20064;-48
2023/03/28 00:35:29;;;;;;;1.48;1.10;;;;;;;;;;5044333;28;20050;-42
2023/03/28 00:37:56;;;;;;;3.05;1.25;;;;;;;;;;5044933;28;20048;-42
2023/03/28 00:40:24;;;;;;;5.57;1.92;;;;;;;;;;5048768;28;20495;-42
2023/03/28 00:42:50;;;;;;;1.98;1.60;;;;;;;;;;5047236;28;20072;-49
2023/03/28 00:45:15;;;;;;;5.47;1.30;;;;;;;;;;5048533;28;20052;-44
2023/03/28 00:47:51;;;;;;;1.30;1.13;;;;;;;;;;5064221;28;20032;-43
2023/03/28 00:50:26;;;;;;;5.10;1.42;;;;;;;;;;5067207;28;20035;-41
2023/03/28 00:53:03;;;;;;;4.53;1.35;;;;;;;;;;5064174;28;20051;-47
2023/03/28 00:55:40;;;;;;;1.88;1.10;;;;;;;;;;5064736;28;20040;-44
2023/03/28 00:58:10;;;;;;;1.38;1.27;;;;;;;;;;5063576;28;20139;-45
2023/03/28 01:00:37;;;;;;;1.90;1.40;;;;;;;;;;5057355;28;20041;-41
2023/03/28 01:03:05;;;;;;;2.15;1.08;;;;;;;;;;5062578;28;20048;-49
2023/03/28 01:05:32;;;;;;;2.45;1.20;;;;;;;;;;5059282;28;20040;-42
2023/03/28 01:08:05;;;;;;;2.17;1.42;;;;;;;;;;5061898;28;20020;-43
2023/03/28 01:10:32;;;;;;;1.45;0.90;;;;;;;;;;5062529;28;20049;-41
2023/03/28 01:12:59;;;;;;;4.00;1.55;;;;;;;;;;5061251;28;20048;-42
2023/03/28 01:15:24;;;;;;;3.85;1.65;;;;;;;;;;5058465;28;20068;-48
2023/03/28 01:17:50;;;;;;;2.97;1.45;;;;;;;;;;5061461;28;20062;-45
2023/03/28 01:20:28;;;;;;;2.53;1.30;;;;;;;;;;5057271;28;20064;-41
2023/03/28 01:23:12;;;;;;;4.13;1.63;;;;;;;;;;5062027;28;20090;-41
2023/03/28 01:25:57;;;;;;;2.13;1.30;;;;;;;;;;5063483;28;20033;-43
2023/03/28 01:28:51;;;;;;;1.98;1.50;;;;;;;;;;5062168;28;20048;-42
2023/03/28 01:31:26;;;;;;;1.52;1.38;;;;;;;;;;5045795;28;20139;-42
2023/03/28 01:34:29;;;;;;;3.85;1.50;;;;;;;;;;5044809;28;20041;-45
2023/03/28 01:37:06;;;;;;;;;;;;;;;;;;4967716;28;20046;-41
2023/03/28 01:40:10;;;;;;;1.40;1.02;;;;;;;;;;4961614;28;19988;-45
2023/03/28 01:42:57;;;;;;;4.43;1.40;;;;;;;;;;4964041;28;20045;-41
2023/03/28 01:45:28;;;;;;;1.52;1.10;;;;;;;;;;4965575;28;20404;-41
2023/03/28 01:48:00;;;;;;;1.65;1.27;;;;;;;;;;4967144;28;20511;-44
2023/03/28 01:50:34;;;;;;;1.77;1.30;;;;;;;;;;4966011;28;20051;-41
2023/03/28 01:53:21;;;;;;;3.55;1.45;;;;;;;;;;4966580;28;20109;-43
2023/03/28 01:55:56;;;;;;;5.07;1.70;;;;;;;;;;4972771;28;20427;-45
2023/03/28 01:58:35;;;;;;;3.67;1.45;;;;;;;;;;4985895;28;20097;-42
2023/03/28 02:01:14;;;;;;;2.22;1.05;;;;;;;;;;4984171;28;20045;-40
2023/03/28 02:03:46;;;;;;;3.83;1.45;;;;;;;;;;4983936;28;20046;-49
2023/03/28 02:06:13;;;;;;;2.38;1.25;;;;;;;;;;4985762;28;20050;-41
2023/03/28 02:08:42;;;;;;;4.55;1.52;;;;;;;;;;4995757;28;20038;-44
2023/03/28 02:11:09;;;;;;;3.80;1.17;;;;;;;;;;4992830;28;20049;-45
2023/03/28 02:13:48;;;;;;;2.25;1.13;;;;;;;;;;5040336;28;20041;-42
2023/03/28 02:16:15;;;;;;;3.15;1.40;;;;;;;;;;5042948;28;20068;-43
2023/03/28 02:18:50;;;;;;;3.50;1.48;;;;;;;;;;5045104;28;20083;-44
2023/03/28 02:21:23;;;;;;;4.38;1.35;;;;;;;;;;5037407;28;20041;-41
2023/03/28 02:23:51;;;;;;;4.70;1.02;;;;;;;;;;5043444;28;20059;-41
2023/03/28 02:26:19;;;;;;;1.27;1.05;;;;;;;;;;5039226;28;20061;-43
2023/03/28 02:28:47;;;;;;;3.55;1.40;;;;;;;;;;5039691;28;20029;-47
2023/03/28 02:31:13;;;;;;;2.30;1.40;;;;;;;;;;5037960;28;20417;-41
2023/03/28 02:33:41;;;;;;;1.58;1.05;;;;;;;;;;5039050;28;20029;-41
2023/03/28 02:36:34;;;;;;;4.53;1.58;;;;;;;;;;5041653;28;20124;-41
2023/03/28 02:39:20;;;;;;;1.67;1.10;;;;;;;;;;5041989;28;20481;-41
2023/03/28 02:42:20;;;;;;;1.33;1.23;;;;;;;;;;5039325;28;20475;-45
2023/03/28 02:45:03;;;;;;;3.75;1.15;;;;;;;;;;5043077;28;20025;-41
2023/03/28 02:47:42;;;;;;;;;;;;;;;;;;5042382;28;20094;-42
2023/03/28 02:50:17;;;;;;;2.20;1.25;;;;;;;;;;5040814;28;19928;-41
2023/03/28 02:52:51;;;;;;;1.15;0.90;;;;;;;;;;5045076;28;20021;-41
2023/03/28 02:55:47;;;;;;;4.97;1.60;;;;;;;;;;5045955;28;20039;-42
2023/03/28 02:58:16;;;;;;;2.55;1.25;;;;;;;;;;5079664;28;20097;-41
2023/03/28 03:00:42;;;;;;;2.53;1.42;;;;;;;;;;5083142;28;20122;-45
2023/03/28 03:03:09;;;;;;;1.38;1.27;;;;;;;;;;5081134;28;20043;-41
2023/03/28 03:05:35;;;;;;;1.42;1.30;;;;;;;;;;5084079;28;20046;-41
2023/03/28 03:08:01;;;;;;;3.70;1.58;;;;;;;;;;5083564;28;20127;-44
2023/03/28 03:10:26;;;;;;;1.95;1.25;;;;;;;;;;5078993;28;20119;-42
2023/03/28 03:12:52;;;;;;;2.13;1.10;;;;;;;;;;5079013;28;20175;-41
2023/03/28 03:15:18;;;;;;;4.57;1.15;;;;;;;;;;5080594;28;20052;-45
2023/03/28 03:17:44;;;;;;;2.85;1.10;;;;;;;;;;5081531;28;20042;-42
2023/03/28 03:20:09;;;;;;;1.80;1.20;;;;;;;;;;5080389;28;20394;-43
2023/03/28 03:22:35;;;;;;;3.28;1.27;;;;;;;;;;5080826;28;20039;-47
2023/03/28 03:25:05;;;;;;;4.97;1.48;;;;;;;;;;5081443;28;20111;-41
2023/03/28 03:27:31;;;;;;;1.15;1.00;;;;;;;;;;5083241;28;20133;-41
2023/03/28 03:29:57;;;;;;;3.97;1.33;;;;;;;;;;5080213;28;20032;-41
2023/03/28 03:32:22;;;;;;;4.18;1.65;;;;;;;;;;5074504;28;20044;-41
2023/03/28 03:34:48;;;;;;;6.28;1.58;;;;;;;;;;5072586;28;20040;-43
2023/03/28 03:37:16;;;;;;;6.93;1.50;;;;;;;;;;5057281;28;20501;-43
2023/03/28 03:39:44;;;;;;;2.05;1.27;;;;;;;;;;5054216;28;20123;-44
2023/03/28 03:42:10;;;;;;;3.15;1.08;;;;;;;;;;5062379;28;20876;-43
2023/03/28 03:44:36;;;;;;;4.88;1.30;;;;;;;;;;5061713;28;20032;-42
2023/03/28 03:47:02;;;;;;;2.92;1.50;;;;;;;;;;5042723;28;20540;-48
2023/03/28 03:49:27;;;;;;;1.48;1.20;;;;;;;;;;5039370;28;20433;-45
2023/03/28 03:51:52;;;;;;;5.55;1.90;;;;;;;;;;5044608;28;21729;-41
2023/03/28 03:54:18;;;;;;;3.75;1.00;;;;;;;;;;5044451;28;20021;-43
2023/03/28 03:56:44;;;;;;;1.38;1.27;;;;;;;;;;5041754;28;20549;-45
2023/03/28 03:59:10;;;;;;;4.47;1.20;;;;;;;;;;5045822;28;20107;-48
2023/03/28 04:01:38;;;;;;;4.25;1.80;;;;;;;;;;5043214;28;20112;-43
2023/03/28 04:04:04;;;;;;;2.08;1.45;;;;;;;;;;5043101;28;20029;-42
2023/03/28 04:06:30;;;;;;;2.72;1.30;;;;;;;;;;5037151;28;20034;-45
2023/03/28 04:08:55;;;;;;;2.35;1.48;;;;;;;;;;5040001;28;20035;-42
2023/03/28 04:11:21;;;;;;;3.13;1.30;;;;;;;;;;5043265;28;20132;-42
2023/03/28 04:13:46;;;;;;;4.28;1.17;;;;;;;;;;5043977;28;20073;-41
2023/03/28 04:16:12;;;;;;;3.53;1.30;;;;;;;;;;5042178;28;20662;-44
2023/03/28 04:18:38;;;;;;;2.38;1.40;;;;;;;;;;5045074;28;20029;-43
2023/03/28 04:21:04;;;;;;;3.58;1.25;;;;;;;;;;5050625;28;20047;-44
2023/03/28 04:23:29;;;;;;;3.60;1.17;;;;;;;;;;5059021;28;20112;-42
2023/03/28 04:25:59;;;;;;;2.90;1.40;;;;;;;;;;5056206;28;20052;-41
2023/03/28 04:28:26;;;;;;;3.78;1.17;;;;;;;;;;5056249;28;20595;-43
2023/03/28 04:30:53;;;;;;;1.70;1.45;;;;;;;;;;5061350;28;20508;-41
2023/03/28 04:33:24;;;;;;;3.25;1.88;;;;;;;;;;5062872;28;20067;-42
2023/03/28 04:36:00;;;;;;;3.15;1.30;;;;;;;;;;5054839;28;20037;-41
2023/03/28 04:38:27;;;;;;;2.75;1.27;;;;;;;;;;5062172;28;20032;-41
2023/03/28 04:40:58;;;;;;;2.38;1.50;;;;;;;;;;5047032;28;20538;-41
2023/03/28 04:43:25;;;;;;;5.15;1.05;;;;;;;;;;5036615;28;20029;-45
2023/03/28 04:45:51;;;;;;;4.35;1.35;;;;;;;;;;5044158;28;20490;-41
2023/03/28 04:48:17;;;;;;;2.47;1.38;;;;;;;;;;5041250;28;20108;-41
2023/03/28 04:50:42;;;;;;;2.58;1.50;;;;;;;;;;5045533;28;20156;-42
2023/03/28 04:53:08;;;;;;;1.98;1.42;;;;;;;;;;5058082;28;20028;-41
2023/03/28 04:55:33;;;;;;;3.53;1.40;;;;;;;;;;5061790;28;20062;-41
2023/03/28 04:57:59;;;;;;;6.60;1.40;;;;;;;;;;5062577;28;20055;-41
2023/03/28 05:00:24;;;;;;;5.07;1.30;;;;;;;;;;5059094;28;20048;-40
2023/03/28 05:02:54;;;;;;;3.90;1.33;;;;;;;;;;5063302;28;20483;-41
2023/03/28 05:05:20;;;;;;;2.38;1.35;;;;;;;;;;5055355;28;20175;-40
2023/03/28 05:07:45;;;;;;;2.92;1.40;;;;;;;;;;5045654;28;20145;-40
2023/03/28 05:10:11;;;;;;;2.65;1.58;;;;;;;;;;5047490;28;20477;-43
2023/03/28 05:12:36;;;;;;;2.17;1.60;;;;;;;;;;5060586;28;20036;-41
2023/03/28 05:15:03;;;;;;;5.03;1.48;;;;;;;;;;5058775;28;20032;-42
2023/03/28 05:17:29;;;;;;;5.68;1.63;;;;;;;;;;5042150;28;20103;-40
2023/03/28 05:19:54;;;;;;;4.13;1.45;;;;;;;;;;5037786;28;20041;-39
2023/03/28 05:22:20;;;;;;;7.45;2.13;;;;;;;;;;5042378;28;20045;-40
2023/03/28 05:24:45;;;;;;;5.40;1.85;;;;;;;;;;5043793;28;20025;-43
2023/03/28 05:27:11;;;;;;;4.72;1.70;;;;;;;;;;5043988;28;20073;-40
2023/03/28 05:29:36;;;;;;;4.65;1.98;;;;;;;;;;5040684;28;20025;-39
2023/03/28 05:32:02;;;;;;;5.35;3.30;;;;;;;;;;5043190;28;20063;-43
2023/03/28 05:34:28;;;;;;;4.13;2.83;;;;;;;;;;5039939;28;20029;-39
2023/03/28 05:36:55;;;;;;;4.45;1.75;;;;;;;;;;5041762;28;20064;-41
2023/03/28 05:39:22;;;;;;;3.30;2.10;;;;;;;;;;5036661;28;20080;-40
2023/03/28 05:41:48;;;;;;;1.55;1.40;;;;;;;;;;5040175;28;20045;-41
2023/03/28 05:44:13;;;;;;;2.30;1.40;;;;;;;;;;5041920;28;20543;-40
2023/03/28 05:46:38;;;;;;;3.33;2.03;;;;;;;;;;5038812;28;20148;-40
2023/03/28 05:49:04;;;;;;;2.72;2.30;;;;;;;;;;5039083;28;20037;-40
2023/03/28 05:51:29;;;;;;;9.73;2.65;;;;;;;;;;5040024;28;20461;-40
2023/03/28 05:53:55;;;;;;;7.80;1.92;;;;;;;;;;5042694;28;20091;-42
2023/03/28 05:56:20;;;;;;;2.35;1.70;;;;;;;;;;5037213;28;20072;-40
2023/03/28 05:58:47;;;;;;;8.57;2.65;;;;;;;;;;5037316;28;20029;-42
2023/03/28 06:01:17;;;;;;;3.63;1.30;;;;;;;;;;5039792;28;20057;-41
2023/03/28 06:03:44;;;;;;;2.38;1.38;;;;;;;;;;5042265;28;20513;-40
2023/03/28 06:06:10;;;;;;;5.30;1.40;;;;;;;;;;5042454;28;20064;-40
2023/03/28 06:08:36;;;;;;;3.65;1.63;;;;;;;;;;5045323;28;20060;-40
2023/03/28 06:11:02;;;;;;;7.00;1.65;;;;;;;;;;5041142;28;20072;-41
2023/03/28 06:13:28;;;;;;;7.82;1.55;;;;;;;;;;5043444;28;20493;-40
2023/03/28 06:15:53;;;;;;;3.75;1.63;;;;;;;;;;5040735;28;20118;-40
2023/03/28 06:18:19;;;;;;;3.22;1.92;;;;;;;;;;5038621;28;20037;-40
2023/03/28 06:20:44;;;;;;;3.75;1.48;;;;;;;;;;5049542;28;20154;-40
2023/03/28 06:23:10;;;;;;;4.55;1.90;;;;;;;;;;5064468;28;20424;-40
2023/03/28 06:25:35;;;;;;;2.75;1.48;;;;;;;;;;5063521;28;20040;-40
2023/03/28 06:28:01;;;;;;;1.50;1.33;;;;;;;;;;5059626;28;20056;-40
2023/03/28 06:30:26;;;;;;;6.35;1.50;;;;;;;;;;5060481;28;20043;-42
2023/03/28 06:32:51;;;;;;;6.45;2.08;;;;;;;;;;5060310;28;20032;-43
2023/03/28 06:35:17;;;;;;;9.63;1.65;;;;;;;;;;5060576;28;20804;-41
2023/03/28 06:37:42;;;;;;;3.33;1.88;;;;;;;;;;5054851;28;20027;-40
2023/03/28 06:40:09;;;;;;;3.15;1.70;;;;;;;;;;5062024;28;20051;-40
2023/03/28 06:42:34;;;;;;;3.90;1.92;;;;;;;;;;5057795;28;20033;-40
2023/03/28 06:45:00;;;;;;;7.30;1.73;;;;;;;;;;5061654;28;20431;-40
2023/03/28 06:47:25;;;;;;;8.52;2.08;;;;;;;;;;5037129;28;20512;-40
2023/03/28 06:49:51;;;;;;;3.53;1.80;;;;;;;;;;5040313;28;20112;-40
2023/03/28 06:52:16;;;;;;;5.70;1.67;;;;;;;;;;5039374;28;20091;-40
2023/03/28 06:54:42;;;;;;;4.22;1.48;;;;;;;;;;5042750;28;20045;-40
2023/03/28 06:57:07;;;;;;;4.63;1.58;;;;;;;;;;5045920;28;20047;-40
2023/03/28 06:59:33;;;;;;;7.72;1.80;;;;;;;;;;5046368;28;20055;-42
2023/03/28 07:01:58;;;;;;;3.53;1.77;;;;;;;;;;5040850;28;20459;-41
2023/03/28 07:04:23;;;;;;;7.20;1.48;;;;;;;;;;5038855;28;20119;-43
2023/03/28 07:06:49;;;;;;;2.67;1.73;;;;;;;;;;5047924;28;20036;-42
2023/03/28 07:09:14;;;;;;;4.22;1.33;;;;;;;;;;5043572;28;20102;-41
2023/03/28 07:11:40;;;;;;;12.18;2.08;;;;;;;;;;5041133;28;20044;-43
2023/03/28 07:14:05;;;;;;;4.65;1.60;;;;;;;;;;5042379;28;20086;-45
2023/03/28 07:16:31;;;;;;;8.50;2.35;;;;;;;;;;5040216;28;20045;-41
2023/03/28 07:18:56;;;;;;;5.80;2.15;;;;;;;;;;5041171;28;20028;-43
2023/03/28 07:21:21;;;;;;;3.80;1.80;;;;;;;;;;5044665;28;20064;-40
2023/03/28 07:23:47;;;;;;;2.25;1.52;;;;;;;;;;5045318;28;20021;-41
2023/03/28 07:26:13;;;;;;;8.55;1.67;;;;;;;;;;5053804;28;20048;-41
2023/03/28 07:28:39;;;;;;;4.82;2.00;;;;;;;;;;5060288;28;20032;-41
2023/03/28 07:31:05;;;;;;;3.88;1.80;;;;;;;;;;5052491;28;20037;-42
2023/03/28 07:33:33;;;;;;;12.63;2.20;;;;;;;;;;5041258;28;20378;-43
2023/03/28 07:36:00;;;;;;;8.20;1.58;;;;;;;;;;5041723;28;20636;-41
2023/03/28 07:38:25;;;;;;;6.60;2.08;;;;;;;;;;5043470;28;20040;-41
2023/03/28 07:40:50;;;;;;;3.15;1.77;;;;;;;;;;5042846;28;20048;-41
2023/03/28 07:43:16;;;;;;;3.03;1.55;;;;;;;;;;5063778;28;20032;-45
2023/03/28 07:45:46;;;;;;;1.65;1.48;;;;;;;;;;5055986;28;20559;-40
2023/03/28 07:48:14;;;;;;;1.95;1.17;;;;;;;;;;5041383;28;21144;-40
2023/03/28 07:50:42;;;;;;;5.53;1.45;;;;;;;;;;5042651;28;20033;-40
2023/03/28 07:53:08;;;;;;;4.95;1.38;;;;;;;;;;5039822;28;20381;-40
2023/03/28 07:55:35;;;;;;;3.35;1.42;;;;;;;;;;5045301;28;20033;-41
2023/03/28 07:58:01;;;;;;;1.88;1.42;;;;;;;;;;5042935;28;20060;-41
2023/03/28 08:00:26;;;;;;;2.88;1.10;;;;;;;;;;5044849;28;20056;-40
2023/03/28 08:02:52;;;;;;;2.13;1.30;;;;;;;;;;5054543;28;20032;-40
2023/03/28 08:05:17;;;;;;;3.22;1.17;;;;;;;;;;5053629;28;20045;-41
2023/03/28 08:07:44;;;;;;;2.90;1.30;;;;;;;;;;5045871;28;20436;-40
2023/03/28 08:10:11;;;;;;;2.95;1.10;;;;;;;;;;5040415;28;20057;-41
2023/03/28 08:12:37;;;;;;;2.25;1.50;;;;;;;;;;5046471;28;20095;-41
2023/03/28 08:15:03;;;;;;;2.88;1.60;;;;;;;;;;5043309;28;20120;-40
2023/03/28 08:17:29;;;;;;;5.82;1.73;;;;;;;;;;5060293;28;20037;-41
2023/03/28 08:19:55;;;;;;;4.40;1.33;;;;;;;;;;5061759;28;20713;-40
2023/03/28 08:22:20;;;;;;;2.15;1.30;;;;;;;;;;5055675;28;20522;-41
2023/03/28 08:24:46;;;;;;;1.20;1.10;;;;;;;;;;5060240;28;20033;-41
2023/03/28 08:27:11;;;;;;;3.17;1.20;;;;;;;;;;5058077;28;20040;-42
2023/03/28 08:29:37;;;;;;;3.22;1.15;;;;;;;;;;5055661;28;20035;-41
2023/03/28 08:32:05;;;;;;;1.77;1.20;;;;;;;;;;5042448;28;20072;-41
2023/03/28 08:34:30;;;;;;;3.28;1.50;;;;;;;;;;5044180;28;20060;-40
2023/03/28 08:36:56;;;;;;;4.93;1.50;;;;;;;;;;5048877;28;20489;-40
2023/03/28 08:39:22;;;;;;;5.68;1.52;;;;;;;;;;5050977;28;20028;-40
2023/03/28 08:42:12;;;;;;;4.25;1.08;;;;;;;;;;5048646;28;20078;-41
2023/03/28 08:44:49;;;;;;;7.40;1.48;;;;;;;;;;5047771;28;20104;-40
2023/03/28 08:47:24;;;;;;;7.78;1.40;;;;;;;;;;5061543;28;20048;-41
2023/03/28 08:50:00;;;;;;;5.60;1.30;;;;;;;;;;5059784;28;20021;-42
2023/03/28 08:52:27;;;;;;;7.13;1.25;;;;;;;;;;5042329;28;20041;-40
2023/03/28 08:55:14;;;;;;;4.00;1.77;;;;;;;;;;5046291;28;20084;-41
2023/03/28 08:57:41;;;;;;;4.82;1.30;;;;;;;;;;5040080;28;20084;-41
2023/03/28 09:00:13;;;;;;;3.13;1.10;;;;;;;;;;5045223;28;20032;-42
2023/03/28 09:02:40;;;;;;;4.80;1.23;;;;;;;;;;5063170;28;20028;-41
2023/03/28 09:05:09;;;;;;;3.88;1.30;;;;;;;;;;5067892;28;20024;-41
2023/03/28 09:07:36;;;;;;;2.35;1.17;;;;;;;;;;5059902;28;20025;-41
2023/03/28 09:10:29;;;;;;;4.22;1.70;;;;;;;;;;5059805;28;20475;-42
2023/03/28 09:13:06;;;;;;;2.35;1.40;;;;;;;;;;5059765;28;20091;-41
2023/03/28 09:15:53;;;;;;;6.05;1.30;;;;;;;;;;5057087;28;20041;-41
2023/03/28 09:18:36;;;;;;;5.13;1.50;;;;;;;;;;5058410;28;20040;-41
2023/03/28 09:21:26;;;;;;;5.78;1.55;;;;;;;;;;5063488;28;20490;-42
2023/03/28 09:24:19;;;;;;;6.60;1.50;;;;;;;;;;5060341;28;20428;-42
2023/03/28 09:27:03;;;;;;;5.60;1.38;;;;;;;;;;5059698;28;20048;-40
2023/03/28 09:29:31;;;;;;;2.03;1.20;;;;;;;;;;5056202;28;20029;-41
2023/03/28 09:32:04;;;;;;;4.10;1.73;;;;;;;;;;5060232;28;20047;-43
2023/03/28 09:34:38;;;;;;;4.22;1.50;;;;;;;;;;5062267;28;20025;-42
2023/03/28 09:37:17;;;;;;;4.00;1.40;;;;;;;;;;5055120;28;20060;-41
2023/03/28 09:39:51;;;;;;;2.60;1.23;;;;;;;;;;5056235;28;20662;-41
2023/03/28 09:42:16;;;;;;;2.80;1.40;;;;;;;;;;5063760;28;20159;-41
2023/03/28 09:45:25;;;;;;;4.35;1.55;;;;;;;;;;5060366;28;20807;-40
2023/03/28 09:47:51;;;;;;;4.00;1.50;;;;;;;;;;5056926;28;20127;-41
2023/03/28 09:50:18;;;;;;;3.45;1.60;;;;;;;;;;5055401;28;20208;-44
2023/03/28 09:52:45;;;;;;;4.85;1.38;;;;;;;;;;5058552;28;20053;-41
2023/03/28 09:55:16;;;;;;;8.70;2.10;;;;;;;;;;5059980;28;20404;-40
2023/03/28 09:58:03;;;;;;;7.25;1.73;;;;;;;;;;5063948;28;20043;-41
2023/03/28 10:00:32;;;;;;;7.88;1.77;;;;;;;;;;5058826;28;20575;-41
2023/03/28 10:02:58;;;;;;;4.47;1.88;;;;;;;;;;5062331;28;20028;-41
2023/03/28 10:05:39;;;;;;;5.65;1.95;;;;;;;;;;5059221;28;20155;-41
2023/03/28 10:08:25;;;;;;;10.52;2.13;;;;;;;;;;5060463;28;20033;-41
2023/03/28 10:11:15;;;;;;;5.10;1.65;;;;;;;;;;5060612;28;20047;-40
2023/03/28 10:13:46;;;;;;;5.80;1.90;;;;;;;;;;5052712;28;20043;-41
2023/03/28 10:16:13;;;;;;;8.23;1.85;;;;;;;;;;5058852;28;20136;-44
2023/03/28 10:18:41;;;;;;;2.03;1.67;;;;;;;;;;5058752;28;20512;-40
2023/03/28 10:21:14;;;;;;;6.63;1.60;;;;;;;;;;5063599;28;20037;-41
2023/03/28 10:23:44;;;;;;;3.03;1.48;;;;;;;;;;5058890;28;20028;-40
2023/03/28 10:26:14;;;;;;;3.83;1.80;;;;;;;;;;5059162;28;20079;-43
2023/03/28 10:28:42;;;;;;;5.68;1.70;;;;;;;;;;5064160;28;20087;-41
2023/03/28 10:31:20;;;;;;;11.80;1.73;;;;;;;;;;5056965;28;20136;-41
2023/03/28 10:33:51;;;;;;;4.03;1.80;;;;;;;;;;5059190;28;20048;-46
2023/03/28 10:36:38;;;;;;;5.80;1.80;;;;;;;;;;5056045;28;20041;-47
2023/03/28 10:39:20;;;;;;;3.63;1.52;;;;;;;;;;5057242;28;20037;-41
2023/03/28 10:41:52;;;;;;;8.48;2.00;;;;;;;;;;5054876;28;20036;-42
2023/03/28 10:44:26;;;;;;;3.65;2.03;;;;;;;;;;5060266;28;20101;-42
2023/03/28 10:46:52;;;;;;;4.47;1.98;;;;;;;;;;5042980;28;20044;-51
2023/03/28 10:49:19;;;;;;;3.90;1.50;;;;;;;;;;5038030;28;20033;-46
2023/03/28 10:51:45;;;;;;;5.35;1.75;;;;;;;;;;5042419;28;20048;-43
2023/03/28 10:54:19;;;;;;;4.15;1.77;;;;;;;;;;5040331;28;20029;-42
2023/03/28 10:56:51;;;;;;;8.93;2.10;;;;;;;;;;5040005;28;20075;-41
2023/03/28 10:59:48;;;;;;;5.13;2.22;;;;;;;;;;5043128;28;20028;-42
2023/03/28 11:02:42;;;;;;;11.23;2.10;;;;;;;;;;5036354;28;20052;-43
2023/03/28 11:05:30;;;;;;;13.20;2.15;;;;;;;;;;5042713;28;20155;-42
2023/03/28 11:08:06;;;;;;;3.53;1.80;;;;;;;;;;5033897;28;20421;-41
2023/03/28 11:10:41;;;;;;;4.93;1.90;;;;;;;;;;5035989;28;20493;-42
2023/03/28 11:13:31;;;;;;;3.85;2.15;;;;;;;;;;5043455;28;20045;-42
2023/03/28 11:15:59;;;;;;;5.25;1.92;;;;;;;;;;5037197;28;20052;-43
2023/03/28 11:18:49;;;;;;;6.60;2.10;;;;;;;;;;5043327;28;20037;-45
2023/03/28 11:21:21;;;;;;;7.97;2.00;;;;;;;;;;5044197;28;20523;-43
2023/03/28 11:23:58;;;;;;;5.38;1.73;;;;;;;;;;5044122;28;20044;-47
2023/03/28 11:26:38;;;;;;;5.20;1.45;;;;;;;;;;5039180;28;20033;-44
2023/03/28 11:29:25;;;;;;;6.93;1.73;;;;;;;;;;5036596;28;20026;-41
2023/03/28 11:32:12;;;;;;;11.85;1.88;;;;;;;;;;5037741;28;20071;-44
2023/03/28 11:34:43;;;;;;;5.03;1.70;;;;;;;;;;5034062;28;20033;-42
2023/03/28 11:37:24;;;;;;;7.80;2.33;;;;;;;;;;5033953;28;20132;-48
2023/03/28 11:39:59;;;;;;;6.18;1.90;;;;;;;;;;5034935;28;20029;-44
2023/03/28 11:42:54;;;;;;;4.68;1.83;;;;;;;;;;5035793;28;20043;-48
2023/03/28 11:45:26;;;;;;;5.97;1.92;;;;;;;;;;5028252;28;20048;-50
2023/03/28 11:48:17;;;;;;;5.57;1.50;;;;;;;;;;5040086;28;20061;-41
2023/03/28 11:51:17;;;;;;;8.27;1.40;;;;;;;;;;5040523;28;20728;-41
2023/03/28 11:54:02;;;;;;;4.15;1.40;;;;;;;;;;5045786;28;20033;-41
2023/03/28 11:56:33;;;;;;;9.93;2.53;;;;;;;;;;5042955;28;20113;-43
2023/03/28 11:59:03;;;;;;;7.90;2.22;;;;;;;;;;5040196;28;20025;-42
2023/03/28 12:01:36;;;;;;;6.68;1.88;;;;;;;;;;5042090;28;20632;-41
2023/03/28 12:04:17;;;;;;;15.13;2.15;;;;;;;;;;5037533;28;20029;-41
2023/03/28 12:06:52;;;;;;;9.68;1.70;;;;;;;;;;5040876;28;20441;-43
2023/03/28 12:09:27;;;;;;;4.63;1.50;;;;;;;;;;5039640;28;20033;-41
2023/03/28 12:12:10;;;;;;;8.32;1.80;;;;;;;;;;5038313;28;20040;-45
2023/03/28 12:14:56;;;;;;;6.60;1.63;;;;;;;;;;5049812;28;20893;-41
2023/03/28 12:17:27;;;;;;;5.60;1.80;;;;;;;;;;5060538;28;20082;-43
2023/03/28 12:19:52;;;;;;;5.20;1.67;;;;;;;;;;5062953;28;20120;-44
2023/03/28 12:22:33;;;;;;;6.32;1.65;;;;;;;;;;5050064;28;20124;-42
2023/03/28 12:25:05;;;;;;;7.80;2.03;;;;;;;;;;5048990;28;20095;-42
2023/03/28 12:27:45;;;;;;;3.90;1.67;;;;;;;;;;5048448;28;20032;-41
2023/03/28 12:30:19;;;;;;;6.57;2.00;;;;;;;;;;5046989;28;20044;-46
2023/03/28 12:32:54;;;;;;;7.38;1.60;;;;;;;;;;5048759;28;20087;-42
2023/03/28 12:35:33;;;;;;;7.20;2.05;;;;;;;;;;5047537;28;20068;-44
2023/03/28 12:38:29;;;;;;;7.93;1.63;;;;;;;;;;5048578;28;20120;-45
2023/03/28 12:41:07;;;;;;;4.50;1.73;;;;;;;;;;5022054;28;20553;-43
2023/03/28 12:44:04;;;;;;;2.55;1.50;;;;;;;;;;5032460;28;20149;-41
2023/03/28 12:46:38;;;;;;;6.88;1.58;;;;;;;;;;5031604;28;20450;-47
2023/03/28 12:49:09;;;;;;;4.60;1.65;;;;;;;;;;5031159;28;20033;-43
2023/03/28 12:51:41;;;;;;;6.03;1.50;;;;;;;;;;5035757;28;20041;-43
2023/03/28 12:54:27;;;;;;;4.80;1.20;;;;;;;;;;5031440;28;20120;-42
2023/03/28 12:56:58;;;;;;;11.02;1.45;;;;;;;;;;5029103;28;20078;-41
2023/03/28 13:00:05;;;;;;;9.93;1.95;;;;;;;;;;5031615;28;20121;-42
2023/03/28 13:02:50;;;;;;;5.72;1.73;;;;;;;;;;5005795;28;20104;-41
2023/03/28 13:05:34;;;;;;;9.68;2.28;;;;;;;;;;5005665;28;20197;-50
2023/03/28 13:08:07;;;;;;;6.10;1.52;;;;;;;;;;5007972;28;20042;-43
2023/03/28 13:11:01;;;;;;;6.00;1.45;;;;;;;;;;5006532;28;20498;-44
2023/03/28 13:13:44;;;;;;;5.80;1.45;;;;;;;;;;5003862;28;20053;-43
2023/03/28 13:16:20;;;;;;;4.03;1.30;;;;;;;;;;5001273;28;20130;-43
2023/03/28 13:19:07;;;;;;;6.53;1.42;;;;;;;;;;4985357;28;20120;-41
2023/03/28 13:21:59;;;;;;;3.30;1.30;;;;;;;;;;4984185;28;20046;-44
2023/03/28 13:24:25;;;;;;;3.70;1.67;;;;;;;;;;4983437;28;20034;-48
2023/03/28 13:27:01;;;;;;;8.27;1.38;;;;;;;;;;4983468;28;20069;-46
2023/03/28 13:30:02;;;;;;;4.80;1.27;;;;;;;;;;4979247;28;20144;-50
2023/03/28 13:32:32;;;;;;;2.42;0.93;;;;;;;;;;4986795;28;20049;-43
2023/03/28 13:35:03;;;;;;;7.47;1.60;;;;;;;;;;4986222;28;20042;-39
2023/03/28 13:37:43;;;;;;;6.00;1.35;;;;;;;;;;4979863;28;20081;-45
2023/03/28 13:40:59;;;;;;;6.15;1.77;;;;;;;;;;5054351;28;20040;-42
2023/03/28 13:43:34;;;;;;;5.70;1.20;;;;;;;;;;5041474;28;20044;-43
2023/03/28 13:46:11;;;;;;;4.50;1.30;;;;;;;;;;5040899;28;20122;-42
2023/03/28 13:48:44;;;;;;;7.55;1.70;;;;;;;;;;5041759;28;20039;-42
2023/03/28 13:51:16;;;;;;;8.07;1.55;;;;;;;;;;5044038;28;20118;-43
2023/03/28 13:53:41;;;;;;;4.05;1.30;;;;;;;;;;5041084;28;20043;-42
2023/03/28 13:56:32;;;;;;;6.75;1.65;;;;;;;;;;5044655;28;20037;-42
2023/03/28 13:59:02;;;;;;;6.10;1.50;;;;;;;;;;5044619;28;20044;-42
2023/03/28 14:01:54;;;;;;;5.03;1.67;;;;;;;;;;5043431;28;20568;-42
2023/03/28 14:04:24;;;;;;;8.40;1.65;;;;;;;;;;5042310;28;20053;-42
2023/03/28 14:06:52;;;;;;;4.40;1.52;;;;;;;;;;5042987;28;20037;-41
2023/03/28 14:09:26;;;;;;;5.35;1.50;;;;;;;;;;5042531;28;20055;-41
2023/03/28 14:11:53;;;;;;;5.43;1.35;;;;;;;;;;5043889;28;20220;-41
2023/03/28 14:14:29;;;;;;;3.28;1.05;;;;;;;;;;5044252;28;20450;-42
2023/03/28 14:16:55;;;;;;;8.15;2.22;;;;;;;;;;5045270;28;20505;-42
2023/03/28 14:19:27;;;;;;;7.68;2.00;;;;;;;;;;5049202;28;20075;-43
2023/03/28 14:21:52;;;;;;;3.67;1.73;;;;;;;;;;5056170;28;20045;-43
2023/03/28 14:24:23;;;;;;;4.57;1.60;;;;;;;;;;5059805;28;23098;-41
2023/03/28 14:26:50;;;;;;;3.33;1.60;;;;;;;;;;5063325;28;20052;-43
2023/03/28 14:29:18;;;;;;;6.18;1.35;;;;;;;;;;5058950;28;20630;-46
2023/03/28 14:31:45;;;;;;;2.47;1.15;;;;;;;;;;5057074;28;20463;-47
2023/03/28 14:34:23;;;;;;;6.40;1.40;;;;;;;;;;5058454;28;20050;-46
2023/03/28 14:37:01;;;;;;;8.57;1.58;;;;;;;;;;5058300;28;20521;-44
2023/03/28 14:39:29;;;;;;;6.85;1.35;;;;;;;;;;5062257;28;20028;-45
2023/03/28 14:41:56;;;;;;;6.35;1.70;;;;;;;;;;5043383;28;20052;-43
2023/03/28 14:44:22;;;;;;;8.93;1.40;;;;;;;;;;5040793;28;20099;-42
2023/03/28 14:46:48;;;;;;;5.05;1.67;;;;;;;;;;5043523;28;20033;-44
2023/03/28 14:49:23;;;;;;;3.63;0.98;;;;;;;;;;5044533;28;20032;-46
2023/03/28 14:51:54;;;;;;;3.22;1.08;;;;;;;;;;5046285;28;20048;-45
2023/03/28 14:54:26;;;;;;;6.75;1.63;;;;;;;;;;5039960;28;20108;-42
2023/03/28 14:56:53;;;;;;;4.07;1.27;;;;;;;;;;5036958;28;20037;-43
2023/03/28 14:59:19;;;;;;;5.82;1.73;;;;;;;;;;5044112;28;20775;-42
2023/03/28 15:01:48;;;;;;;5.07;1.80;;;;;;;;;;5043806;28;20025;-48
2023/03/28 15:04:18;;;;;;;7.18;1.42;;;;;;;;;;5047156;28;20382;-42
2023/03/28 15:06:53;;;;;;;4.88;1.30;;;;;;;;;;5041024;28;20394;-41
2023/03/28 15:09:26;;;;;;;7.35;1.30;;;;;;;;;;5051178;28;20113;-43
2023/03/28 15:11:51;;;;;;;4.55;1.33;;;;;;;;;;5034649;28;20090;-50